Pandora, Texas
Current Conditions -  °F | °C
As of 9:15 AM on Wednesday 26 Nov 2014 (Local Time) from KT20 Reporting Station
Clear Clear  
Wind Chill: 55°   Ceiling: Unl
Heat Index: 55°   Visibility: 10mi
Dew Point: 37°   Wind: 8mph
Humidity: 51%   Direction: 230°SW
Pressure: 30.25"   Gusts: NA
Location:  29.25°N, 97.84°W
Report Text: KT20 261515Z AUTO 23007KT 10SM CLR 13/03 A3025 RMK AO2 T01270028
Loading
Personal Weather Stations






























Interactive Weather Map New forecast layout! Learn more

10-Day Weather Forecast

Advertisements
Track Severe Weather on mobile